createdAt,value
2022-10-25T00:01:50.699Z,2.13
2022-10-25T00:07:29.059Z,1.60
2022-10-25T00:13:05.982Z,1.60
2022-10-25T00:18:42.783Z,1.50
2022-10-25T00:24:15.488Z,1.20
2022-10-25T00:27:04.116Z,1.47
2022-10-25T00:29:53.924Z,1.30
2022-10-25T00:32:42.602Z,1.17
2022-10-25T00:38:33.302Z,1.30
2022-10-25T00:50:35.387Z,1.37
2022-10-25T00:53:26.808Z,1.40
2022-10-25T00:56:17.834Z,1.43
2022-10-25T01:01:58.294Z,1.43
2022-10-25T01:04:47.075Z,1.87
2022-10-25T01:10:41.331Z,1.67
2022-10-25T01:13:29.636Z,1.53
2022-10-25T01:21:54.345Z,1.70
2022-10-25T01:25:32.263Z,1.37
2022-10-25T01:31:17.418Z,1.60
2022-10-25T01:36:58.992Z,1.60
2022-10-25T01:42:52.647Z,1.70
2022-10-25T01:48:35.011Z,1.20
2022-10-25T01:54:21.036Z,1.33
2022-10-25T02:00:31.859Z,1.30
2022-10-25T02:09:04.407Z,1.40
2022-10-25T02:11:54.399Z,1.20
2022-10-25T02:17:30.339Z,1.20
2022-10-25T02:23:08.525Z,1.20
2022-10-25T02:28:44.273Z,1.10
2022-10-25T02:34:19.727Z,0.93
2022-10-25T02:37:08.173Z,1.50
2022-10-25T02:39:57.361Z,1.57
2022-10-25T02:45:31.937Z,1.10
2022-10-25T02:48:20.269Z,1.40
2022-10-25T02:59:17.390Z,1.50
2022-10-25T03:04:57.871Z,1.50
2022-10-25T03:07:46.128Z,1.50
2022-10-25T03:13:16.074Z,1.60
2022-10-25T03:16:05.917Z,1.20
2022-10-25T03:18:54.837Z,1.40
2022-10-25T03:24:31.356Z,1.43
2022-10-25T03:30:06.688Z,1.50
2022-10-25T03:35:41.569Z,1.40
2022-10-25T03:41:18.688Z,1.40
2022-10-25T03:46:57.328Z,1.30
2022-10-25T03:55:21.813Z,1.50
2022-10-25T03:58:14.544Z,1.40
2022-10-25T04:06:36.608Z,1.50
2022-10-25T04:09:26.268Z,1.53
2022-10-25T04:15:00.212Z,1.17
2022-10-25T04:20:37.583Z,1.20
2022-10-25T04:26:18.739Z,1.60
2022-10-25T04:31:53.954Z,1.60
2022-10-25T04:34:43.542Z,1.40
2022-10-25T04:40:24.910Z,1.93
2022-10-25T04:43:14.074Z,1.37
2022-10-25T04:48:50.135Z,1.50
2022-10-25T04:54:21.794Z,1.37
2022-10-25T05:00:03.412Z,1.30
2022-10-25T05:05:39.819Z,1.27
2022-10-25T05:11:18.841Z,1.40
2022-10-25T05:14:07.068Z,1.30
2022-10-25T05:19:40.325Z,1.50
2022-10-25T05:25:08.550Z,1.40
2022-10-25T05:30:48.497Z,1.40
2022-10-25T05:36:34.876Z,1.60
2022-10-25T05:42:13.263Z,2.33
2022-10-25T05:47:49.198Z,2.53
2022-10-25T05:50:37.940Z,2.47
2022-10-25T05:53:26.545Z,2.50
2022-10-25T05:59:09.278Z,2.00
2022-10-25T06:01:58.543Z,1.90
2022-10-25T06:04:51.634Z,2.00
2022-10-25T06:07:37.391Z,2.83
2022-10-25T06:10:25.734Z,2.20
2022-10-25T06:13:16.552Z,2.30
2022-10-25T06:18:56.318Z,2.53
2022-10-25T06:24:35.591Z,2.27
2022-10-25T06:27:24.046Z,2.23
2022-10-25T06:30:13.784Z,2.50
2022-10-25T06:33:02.510Z,2.30
2022-10-25T06:35:51.903Z,2.57
2022-10-25T06:38:40.215Z,2.40
2022-10-25T06:44:16.752Z,2.40
2022-10-25T06:47:17.117Z,2.57
2022-10-25T06:52:39.952Z,2.10
2022-10-25T06:55:28.887Z,3.07
2022-10-25T07:01:04.711Z,2.90
2022-10-25T07:06:36.294Z,3.17
2022-10-25T07:12:10.102Z,2.50
2022-10-25T07:17:43.977Z,3.00
2022-10-25T07:23:23.001Z,2.60
2022-10-25T07:26:12.125Z,2.90
2022-10-25T07:34:36.694Z,2.90
2022-10-25T07:37:27.715Z,3.00
2022-10-25T07:43:02.033Z,2.90
2022-10-25T07:45:51.595Z,2.47
2022-10-25T07:54:19.934Z,2.47
2022-10-25T08:00:03.225Z,2.40
2022-10-25T08:08:28.023Z,2.23
2022-10-25T08:16:47.361Z,2.10
2022-10-25T08:19:35.207Z,2.30
2022-10-25T08:25:13.119Z,2.27
2022-10-25T08:30:46.708Z,2.10
2022-10-25T08:36:24.112Z,1.93
2022-10-25T08:42:01.696Z,1.60
2022-10-25T08:47:42.204Z,1.53
2022-10-25T08:53:23.138Z,1.50
2022-10-25T08:59:04.061Z,1.60
2022-10-25T09:04:43.390Z,1.40
2022-10-25T09:10:48.595Z,1.33
2022-10-25T09:19:17.794Z,0.90
2022-10-25T09:27:50.660Z,1.60
2022-10-25T09:33:30.432Z,2.07
2022-10-25T09:41:55.473Z,1.70
2022-10-25T09:47:44.030Z,2.30
2022-10-25T09:53:20.227Z,2.00
2022-10-25T09:58:57.077Z,2.03
2022-10-25T10:04:30.469Z,2.10
2022-10-25T10:07:22.493Z,1.70
2022-10-25T10:10:14.186Z,1.40
2022-10-25T10:15:51.529Z,1.73
2022-10-25T10:21:26.078Z,1.80
2022-10-25T10:24:21.696Z,1.93
2022-10-25T10:29:57.009Z,2.13
2022-10-25T10:35:44.319Z,2.17
2022-10-25T10:41:18.161Z,1.60
2022-10-25T10:49:43.884Z,2.00
2022-10-25T10:52:34.817Z,1.70
2022-10-25T10:58:30.142Z,2.00
2022-10-25T11:04:27.280Z,1.70
2022-10-25T11:07:23.045Z,2.27
2022-10-25T11:13:18.994Z,2.17
2022-10-25T11:22:51.381Z,2.00
2022-10-25T11:28:40.982Z,2.20
2022-10-25T11:34:25.525Z,1.97
2022-10-25T11:43:15.106Z,1.70
2022-10-25T11:49:16.763Z,2.50
2022-10-25T11:55:13.953Z,2.00
2022-10-25T12:00:59.229Z,2.00
2022-10-25T12:04:02.517Z,2.10
2022-10-25T12:06:55.984Z,2.03
2022-10-25T12:12:27.868Z,2.20
2022-10-25T12:18:08.185Z,2.27
2022-10-25T12:24:02.798Z,2.40
2022-10-25T12:29:42.829Z,2.07
2022-10-25T12:35:30.623Z,2.40
2022-10-25T12:41:16.558Z,2.10
2022-10-25T12:44:20.745Z,2.60
2022-10-25T12:50:26.868Z,2.20
2022-10-25T12:56:46.430Z,2.10
2022-10-25T13:03:23.334Z,2.27
2022-10-25T13:11:46.574Z,2.23
2022-10-25T13:17:49.170Z,2.17
2022-10-25T13:24:03.279Z,1.83
2022-10-25T13:30:28.611Z,2.00
2022-10-25T13:36:19.609Z,2.07
2022-10-25T13:42:11.789Z,1.80
2022-10-25T13:47:54.346Z,2.00
2022-10-25T13:53:39.948Z,1.83
2022-10-25T14:02:23.131Z,2.20
2022-10-25T14:10:59.969Z,1.47
2022-10-25T14:16:41.613Z,1.93
2022-10-25T14:19:37.725Z,2.10
2022-10-25T14:25:27.297Z,1.73
2022-10-25T14:31:25.161Z,2.00
2022-10-25T14:37:05.063Z,1.50
2022-10-25T14:42:49.477Z,2.00
2022-10-25T14:48:31.107Z,1.87
2022-10-25T14:51:22.760Z,2.10
2022-10-25T15:03:23.148Z,2.00
2022-10-25T15:06:13.690Z,2.20
2022-10-25T15:09:41.364Z,2.10
2022-10-25T15:12:19.901Z,2.23
2022-10-25T15:18:03.206Z,2.77
2022-10-25T15:20:56.518Z,4.67
2022-10-25T15:29:30.917Z,2.00
2022-10-25T15:32:21.019Z,1.77
2022-10-25T15:38:17.433Z,1.80
2022-10-25T15:49:28.845Z,2.07
2022-10-25T15:52:17.561Z,1.70
2022-10-25T15:58:01.833Z,1.80
2022-10-25T16:06:23.546Z,1.80
2022-10-25T16:11:58.838Z,1.93
2022-10-25T16:17:33.503Z,1.90
2022-10-25T16:23:03.056Z,2.53
2022-10-25T16:28:41.169Z,2.10
2022-10-25T16:34:18.416Z,1.90
2022-10-25T16:39:48.413Z,3.00
2022-10-25T16:45:37.497Z,2.73
2022-10-25T16:48:25.975Z,2.80
2022-10-25T16:53:59.126Z,3.17
2022-10-25T16:59:30.639Z,2.27
2022-10-25T17:02:20.541Z,2.40
2022-10-25T17:07:50.784Z,2.60
2022-10-25T17:10:46.401Z,2.40
2022-10-25T17:18:56.755Z,3.70
2022-10-25T17:24:25.872Z,2.77
2022-10-25T17:30:02.966Z,2.37
2022-10-25T17:32:51.186Z,3.07
2022-10-25T17:35:43.473Z,3.20
2022-10-25T17:44:03.638Z,3.30
2022-10-25T17:49:36.245Z,3.47
2022-10-25T17:55:18.100Z,7.87
2022-10-25T18:00:59.287Z,7.53
2022-10-25T18:06:36.128Z,4.83
2022-10-25T18:18:34.426Z,4.03
2022-10-25T18:25:00.770Z,3.90
2022-10-25T18:30:36.674Z,4.03
2022-10-25T18:36:15.471Z,3.23
2022-10-25T18:41:55.544Z,3.20
2022-10-25T18:50:19.718Z,3.20
2022-10-25T18:58:42.715Z,2.70
2022-10-25T19:01:34.384Z,2.90
2022-10-25T19:04:27.845Z,2.33
2022-10-25T19:15:32.691Z,2.80
2022-10-25T19:18:25.222Z,3.80
2022-10-25T19:24:18.075Z,3.10
2022-10-25T19:27:11.253Z,3.40
2022-10-25T19:29:59.457Z,3.30
2022-10-25T19:32:51.227Z,3.80
2022-10-25T19:35:42.227Z,3.33
2022-10-25T19:41:25.987Z,3.37
2022-10-25T19:47:09.870Z,3.30
2022-10-25T19:49:58.228Z,2.83
2022-10-25T19:52:48.918Z,3.47
2022-10-25T19:58:18.965Z,2.77
2022-10-25T20:01:12.513Z,3.17
2022-10-25T20:04:01.560Z,3.30
2022-10-25T20:09:49.178Z,3.87
2022-10-25T20:15:26.387Z,2.70
2022-10-25T20:18:24.627Z,2.77
2022-10-25T20:21:23.317Z,2.53
2022-10-25T20:24:11.881Z,2.50
2022-10-25T20:29:47.030Z,2.77
2022-10-25T20:32:35.120Z,3.10
2022-10-25T20:35:27.088Z,2.83
2022-10-25T20:41:14.183Z,2.30
2022-10-25T20:49:51.897Z,3.03
2022-10-25T20:55:30.295Z,2.60
2022-10-25T20:58:21.632Z,3.00
2022-10-25T21:03:54.086Z,3.13
2022-10-25T21:09:57.436Z,3.63
2022-10-25T21:18:16.236Z,3.77
2022-10-25T21:21:07.868Z,3.70
2022-10-25T21:26:45.605Z,3.43
2022-10-25T21:32:21.397Z,3.97
2022-10-25T21:40:45.204Z,3.50
2022-10-25T21:46:22.495Z,3.13
2022-10-25T21:52:12.485Z,3.70
2022-10-25T21:57:48.216Z,4.40
2022-10-25T22:03:24.317Z,3.93
2022-10-25T22:06:14.435Z,3.40
2022-10-25T22:09:02.791Z,3.83
2022-10-25T22:17:23.957Z,3.70
2022-10-25T22:22:57.027Z,3.90
2022-10-25T22:31:11.535Z,3.63
2022-10-25T22:36:44.809Z,3.50
2022-10-25T22:45:04.008Z,3.03
2022-10-25T22:53:37.964Z,2.23
2022-10-25T22:59:14.005Z,2.20
2022-10-25T23:04:48.173Z,2.70
2022-10-25T23:10:24.657Z,2.60
2022-10-25T23:18:49.139Z,2.50
2022-10-25T23:24:27.091Z,2.83
2022-10-25T23:30:16.615Z,3.43
2022-10-25T23:35:51.711Z,3.73
2022-10-25T23:38:40.084Z,3.60
2022-10-25T23:44:18.187Z,3.40
2022-10-25T23:50:10.657Z,4.40
2022-10-25T23:55:48.447Z,3.03
